• Join FlightAware (Why Join?)
  • Login
  • US Flag 
12:03PM EDT


 

Airport Tracker/Info


-or-


 

Live Flight TrackerFlight Track Log ✈ CES2325 ✈ 20-Apr-2013 ✈ ZLAN / LHW - ZLXY / XIY

Flight Track Log - Related Links

Times and Time Zones

All times are in EDT time to prevent confusion due to time zone crossing. See the CES2325 flight status page for this flight to view local times or setup timezone preferences in your user account.

Time Position Orientation Groundspeed Altitude Reporting Facility
EDT Latitude Longitude Course Direction KTS MPH feet Rate Location/Type
07:50PM 35.8006 104.6608 110° East  Level Estimated
07:51PM 35.7685 104.7647 111° Southeast  Level Estimated
07:52PM 35.7362 104.8685 111° Southeast  Level Estimated
07:53PM 35.7039 104.9723 111° Southeast  Level Estimated
07:54PM 35.6715 105.0759 111° Southeast  Level Estimated
07:55PM 35.6390 105.1795 111° Southeast  Level Estimated
07:56PM 35.6064 105.2830 111° Southeast  Level Estimated
07:57PM 35.5738 105.3864 111° Southeast  Level Estimated
07:58PM 35.5410 105.4897 111° Southeast  Level Estimated
07:59PM 35.5082 105.5930 111° Southeast  Level Estimated
08:00PM 35.4752 105.6961 111° Southeast  Level Estimated
08:01PM 35.4422 105.7992 111° Southeast  Level Estimated
08:02PM 35.4091 105.9022 112° Southeast  Level Estimated
08:03PM 35.3759 106.0051 112° Southeast  Level Estimated
08:04PM 35.3426 106.1079 112° Southeast  Level Estimated
08:05PM 35.3092 106.2106 112° Southeast  Level Estimated
08:06PM 35.2758 106.3133 112° Southeast  Level Estimated
08:07PM 35.2422 106.4158 112° Southeast  Level Estimated
08:08PM 35.2086 106.5183 112° Southeast  Level Estimated
08:09PM 35.1720 106.6296 112° Southeast  Level Estimated
08:10PM 35.1352 106.7408 112° Southeast  Level Estimated
08:11PM 35.0984 106.8519 112° Southeast  Level Estimated
08:12PM 35.0614 106.9629 112° Southeast  Level Estimated
08:13PM 35.0243 107.0738 112° Southeast  Level Estimated
08:14PM 34.9872 107.1846 112° Southeast  Level Estimated
08:15PM 34.9499 107.2952 112° Southeast  Level Estimated
08:16PM 34.9126 107.4058 112° Southeast  Level Estimated
08:17PM 34.8751 107.5163 112° Southeast  Level Estimated
08:18PM 34.8375 107.6267 112° Southeast  Level Estimated
08:19PM 34.7999 107.7370 113° Southeast  Level Estimated
08:20PM 34.7621 107.8472 113° Southeast  Level Estimated
08:21PM 34.7243 107.9573 113° Southeast  Level Estimated
08:22PM 34.6863 108.0673 113° Southeast  Level Estimated
08:23PM 34.6482 108.1771 113° Southeast  Level Estimated
08:24PM 34.6101 108.2869 113° Southeast  Level Estimated
08:25PM 34.5718 108.3966 113° Southeast  Level Estimated
08:26PM 34.5335 108.5062 113° Southeast  Level Estimated
08:27PM 34.4950 108.6157 113° Southeast  Level Estimated
08:28PM 34.4565 108.7250 113° Southeast  Level Estimated
08:29PM 34.4471 108.7516 113° Southeast  Level Estimated
08:30PM 34.4471 108.7516 121° Southeast  Level Estimated
08:31PM 34.4471 108.7516 121° Southeast  Level Estimated
08:32PM 34.4471 108.7516 121° Southeast  Level Estimated
08:33PM 34.4471 108.7516 121° Southeast  Level Estimated
08:34PM 34.4471 108.7516 121° Southeast  Level Estimated
08:35PM 34.4471 108.7516 121° Southeast  Level Estimated
08:36PM 34.4471 108.7516 121° Southeast  Level Estimated
08:37PM 34.4471 108.7516 121° Southeast  Level Estimated
08:38PM 34.4471 108.7516 121° Southeast  Level Estimated
08:39PM 34.4471 108.7516 121° Southeast  Level Estimated